MSC Ditte — D5LP2 — position and weather

sailwx.info

Track history (hours):
 
Tides and Currents Weather Stations Pressure Air Temp Water Temp Dewpoint Dewpoint Depression Visibility Wind Speed Wind Dir Waves Ship Positions

MSC Ditte

Last reported at 2018-Jun-12 10:14 UTC. Time now 2018-Jun-21 04:54 UTC.
Position N 01°28' E 104°32'.
Warning: this ship's position is 8 days out of date.

Length 398 m; draft 12.6 m.

Type: Ship (hazmat cat A). MMSI: 636017569.

Date/timePositionNaut miles runAvg speedWind from/ knotsBaromVisibWave heightAir tempDewpointWater temp
2018-Jun-12 10:14N 01°28' E 104°32'518.0
2018-Jun-12 09:57N 01°24' E 104°28'818.1
2018-Jun-12 09:29N 01°19' E 104°21'917.7
2018-Jun-12 09:00N 01°16' E 104°13'917.6
2018-Jun-12 08:28N 01°14' E 104°04'918.0
2018-Jun-12 08:00N 01°14' E 103°56'714.7
2018-Jun-12 07:30N 01°12' E 103°49'4 7.7
2018-Jun-12 07:00N 01°15' E 103°46'2 3.3
2018-Jun-12 06:29N 01°17' E 103°45'0 0.2
2018-Jun-12 06:00N 01°17' E 103°45'0 0.0
2018-Jun-12 05:30N 01°17' E 103°45'0 0.0
2018-Jun-12 05:00N 01°17' E 103°45'0 0.0
2018-Jun-12 04:29N 01°17' E 103°45'0 0.0
2018-Jun-12 04:00N 01°17' E 103°45'0 0.0
2018-Jun-12 03:30N 01°17' E 103°45'0 0.0
2018-Jun-12 02:57N 01°17' E 103°45'0 0.0
2018-Jun-12 02:30N 01°17' E 103°45'0 0.0
2018-Jun-12 01:57N 01°17' E 103°45'0 0.0
2018-Jun-12 01:30N 01°17' E 103°45'0 0.0
2018-Jun-12 00:56N 01°17' E 103°45'0 0.0
2018-Jun-12 00:30N 01°17' E 103°45'0 0.0
2018-Jun-11 23:59N 01°17' E 103°45'0 0.0
2018-Jun-11 23:26N 01°17' E 103°45'0 0.0
2018-Jun-11 22:54N 01°17' E 103°45'0 0.0
2018-Jun-11 22:29N 01°17' E 103°45'0 0.0
2018-Jun-11 21:59N 01°17' E 103°45'0 0.0
2018-Jun-11 21:23N 01°17' E 103°45'0 0.0
2018-Jun-11 20:53N 01°17' E 103°45'0 0.0
2018-Jun-11 20:29N 01°17' E 103°45'0 0.0
2018-Jun-11 19:56N 01°17' E 103°45'0 0.0
2018-Jun-11 19:29N 01°17' E 103°45'0 0.0
2018-Jun-11 18:59N 01°17' E 103°45'0 0.0
2018-Jun-11 18:24N 01°17' E 103°45'0 0.0
2018-Jun-11 17:59N 01°17' E 103°45'0 0.0
2018-Jun-11 17:29N 01°17' E 103°45'0 0.0
2018-Jun-11 16:56N 01°17' E 103°45'0 0.0
2018-Jun-11 16:29N 01°17' E 103°45'0 0.0
2018-Jun-11 15:54N 01°17' E 103°45'0 0.0
2018-Jun-11 15:27N 01°17' E 103°45'0 0.0
2018-Jun-11 14:58N 01°17' E 103°45'0 0.0
2018-Jun-11 14:30N 01°17' E 103°45'0 0.0
2018-Jun-11 13:56N 01°17' E 103°45'0 0.0
2018-Jun-11 13:29N 01°17' E 103°45'0 0.0
2018-Jun-11 12:59N 01°17' E 103°45'0 0.0
2018-Jun-11 12:30N 01°17' E 103°45'0 0.0
2018-Jun-11 11:56N 01°17' E 103°45'0 0.0
2018-Jun-11 11:29N 01°17' E 103°45'0 0.0
2018-Jun-11 10:56N 01°17' E 103°45'0 0.0
2018-Jun-11 10:30N 01°17' E 103°45'0 0.0
2018-Jun-11 09:59N 01°17' E 103°45'0 0.0
2018-Jun-11 09:30N 01°17' E 103°45'0 0.0
2018-Jun-11 08:59N 01°17' E 103°45'0 0.0
2018-Jun-11 08:26N 01°17' E 103°45'0 0.0
2018-Jun-11 07:56N 01°17' E 103°45'0 0.5
2018-Jun-11 07:26N 01°16' E 103°45'2 3.7
2018-Jun-11 07:00N 01°15' E 103°46'4 8.4
2018-Jun-11 06:30N 01°14' E 103°42'611.2
2018-Jun-11 06:00N 01°13' E 103°36'3 5.4
2018-Jun-11 05:30N 01°12' E 103°34'3 6.9
2018-Jun-11 05:00N 01°11' E 103°31'4 7.3
2018-Jun-11 04:31N 01°11' E 103°27'4 7.2
2018-Jun-11 03:59N 01°13' E 103°24'4 7.9
2018-Jun-11 03:30N 01°15' E 103°21'4 6.9
2018-Jun-11 02:59N 01°18' E 103°18'3 7.1
2018-Jun-11 02:29N 01°20' E 103°16'4 7.2
2018-Jun-11 01:59N 01°22' E 103°13'  
Track history (hours):
 
Tides and Currents Weather Stations Pressure Air Temp Water Temp Dewpoint Dewpoint Depression Visibility Wind Speed Wind Dir Waves Ship Positions

MSC Ditte

Last reported at 2018-Jun-12 10:14 UTC. Time now 2018-Jun-21 04:54 UTC.
Position N 01°28' E 104°32'.
Warning: this ship's position is 8 days out of date.

Length 398 m; draft 12.6 m.

Type: Ship (hazmat cat A). MMSI: 636017569.

Date/timePositionNaut miles runAvg speedWind from/ knotsBaromVisibWave heightAir tempDewpointWater temp
2018-Jun-12 10:14N 01°28' E 104°32'518.0
2018-Jun-12 09:57N 01°24' E 104°28'818.1
2018-Jun-12 09:29N 01°19' E 104°21'917.7
2018-Jun-12 09:00N 01°16' E 104°13'917.6
2018-Jun-12 08:28N 01°14' E 104°04'918.0
2018-Jun-12 08:00N 01°14' E 103°56'714.7
2018-Jun-12 07:30N 01°12' E 103°49'4 7.7
2018-Jun-12 07:00N 01°15' E 103°46'2 3.3
2018-Jun-12 06:29N 01°17' E 103°45'0 0.2
2018-Jun-12 06:00N 01°17' E 103°45'0 0.0
2018-Jun-12 05:30N 01°17' E 103°45'0 0.0
2018-Jun-12 05:00N 01°17' E 103°45'0 0.0
2018-Jun-12 04:29N 01°17' E 103°45'0 0.0
2018-Jun-12 04:00N 01°17' E 103°45'0 0.0
2018-Jun-12 03:30N 01°17' E 103°45'0 0.0
2018-Jun-12 02:57N 01°17' E 103°45'0 0.0
2018-Jun-12 02:30N 01°17' E 103°45'0 0.0
2018-Jun-12 01:57N 01°17' E 103°45'0 0.0
2018-Jun-12 01:30N 01°17' E 103°45'0 0.0
2018-Jun-12 00:56N 01°17' E 103°45'0 0.0
2018-Jun-12 00:30N 01°17' E 103°45'0 0.0
2018-Jun-11 23:59N 01°17' E 103°45'0 0.0
2018-Jun-11 23:26N 01°17' E 103°45'0 0.0
2018-Jun-11 22:54N 01°17' E 103°45'0 0.0
2018-Jun-11 22:29N 01°17' E 103°45'0 0.0
2018-Jun-11 21:59N 01°17' E 103°45'0 0.0
2018-Jun-11 21:23N 01°17' E 103°45'0 0.0
2018-Jun-11 20:53N 01°17' E 103°45'0 0.0
2018-Jun-11 20:29N 01°17' E 103°45'0 0.0
2018-Jun-11 19:56N 01°17' E 103°45'0 0.0
2018-Jun-11 19:29N 01°17' E 103°45'0 0.0
2018-Jun-11 18:59N 01°17' E 103°45'0 0.0
2018-Jun-11 18:24N 01°17' E 103°45'0 0.0
2018-Jun-11 17:59N 01°17' E 103°45'0 0.0
2018-Jun-11 17:29N 01°17' E 103°45'0 0.0
2018-Jun-11 16:56N 01°17' E 103°45'0 0.0
2018-Jun-11 16:29N 01°17' E 103°45'0 0.0
2018-Jun-11 15:54N 01°17' E 103°45'0 0.0
2018-Jun-11 15:27N 01°17' E 103°45'0 0.0
2018-Jun-11 14:58N 01°17' E 103°45'0 0.0
2018-Jun-11 14:30N 01°17' E 103°45'0 0.0
2018-Jun-11 13:56N 01°17' E 103°45'0 0.0
2018-Jun-11 13:29N 01°17' E 103°45'0 0.0
2018-Jun-11 12:59N 01°17' E 103°45'0 0.0
2018-Jun-11 12:30N 01°17' E 103°45'0 0.0
2018-Jun-11 11:56N 01°17' E 103°45'0 0.0
2018-Jun-11 11:29N 01°17' E 103°45'0 0.0
2018-Jun-11 10:56N 01°17' E 103°45'0 0.0
2018-Jun-11 10:30N 01°17' E 103°45'0 0.0
2018-Jun-11 09:59N 01°17' E 103°45'0 0.0
2018-Jun-11 09:30N 01°17' E 103°45'0 0.0
2018-Jun-11 08:59N 01°17' E 103°45'0 0.0
2018-Jun-11 08:26N 01°17' E 103°45'0 0.0
2018-Jun-11 07:56N 01°17' E 103°45'0 0.5
2018-Jun-11 07:26N 01°16' E 103°45'2 3.7
2018-Jun-11 07:00N 01°15' E 103°46'4 8.4
2018-Jun-11 06:30N 01°14' E 103°42'611.2
2018-Jun-11 06:00N 01°13' E 103°36'3 5.4
2018-Jun-11 05:30N 01°12' E 103°34'3 6.9
2018-Jun-11 05:00N 01°11' E 103°31'4 7.3
2018-Jun-11 04:31N 01°11' E 103°27'4 7.2
2018-Jun-11 03:59N 01°13' E 103°24'4 7.9
2018-Jun-11 03:30N 01°15' E 103°21'4 6.9
2018-Jun-11 02:59N 01°18' E 103°18'3 7.1
2018-Jun-11 02:29N 01°20' E 103°16'4 7.2
2018-Jun-11 01:59N 01°22' E 103°13'  

Dump ship's entire track history